createdAt,value
2019-04-30T00:02:02.693Z,14.13
2019-04-30T00:04:40.279Z,13.93
2019-04-30T00:07:10.156Z,12.97
2019-04-30T00:09:39.375Z,11.93
2019-04-30T00:12:09.666Z,12.50
2019-04-30T00:14:41.325Z,12.57
2019-04-30T00:17:18.047Z,12.40
2019-04-30T00:19:43.228Z,12.83
2019-04-30T00:22:13.298Z,12.00
2019-04-30T00:24:46.791Z,12.00
2019-04-30T00:27:15.227Z,11.50
2019-04-30T00:29:45.766Z,11.00
2019-04-30T00:32:16.117Z,10.90
2019-04-30T00:34:46.145Z,11.53
2019-04-30T00:37:18.868Z,11.83
2019-04-30T00:39:51.042Z,11.73
2019-04-30T00:42:24.498Z,11.07
2019-04-30T00:44:51.689Z,11.03
2019-04-30T00:47:21.761Z,10.80
2019-04-30T00:49:52.117Z,10.60
2019-04-30T00:52:25.198Z,11.70
2019-04-30T00:54:55.438Z,11.10
2019-04-30T00:57:26.509Z,10.23
2019-04-30T00:59:56.509Z,10.37
2019-04-30T01:02:36.549Z,10.30
2019-04-30T01:05:10.511Z,10.00
2019-04-30T01:07:47.935Z,11.17
2019-04-30T01:10:12.778Z,10.90
2019-04-30T01:12:47.360Z,9.87
2019-04-30T01:15:15.585Z,9.67
2019-04-30T01:17:51.102Z,9.67
2019-04-30T01:20:19.247Z,9.00
2019-04-30T01:22:49.118Z,9.07
2019-04-30T01:25:20.781Z,8.77
2019-04-30T01:27:51.851Z,9.17
2019-04-30T01:30:22.847Z,8.13
2019-04-30T01:32:56.634Z,8.50
2019-04-30T01:35:30.937Z,8.67
2019-04-30T01:37:56.693Z,8.10
2019-04-30T01:40:28.466Z,8.40
2019-04-30T01:42:59.304Z,8.43
2019-04-30T01:45:31.615Z,8.27
2019-04-30T01:48:08.774Z,7.60
2019-04-30T01:50:38.641Z,8.07
2019-04-30T01:53:11.451Z,7.60
2019-04-30T01:55:56.869Z,8.33
2019-04-30T01:59:04.031Z,8.20
2019-04-30T02:01:35.156Z,7.67
2019-04-30T02:04:05.211Z,7.30
2019-04-30T02:06:35.250Z,7.40
2019-04-30T02:09:06.178Z,7.13
2019-04-30T02:11:36.373Z,7.13
2019-04-30T02:14:06.438Z,7.13
2019-04-30T02:16:36.517Z,6.80
2019-04-30T02:19:06.559Z,7.13
2019-04-30T02:21:38.273Z,6.87
2019-04-30T02:24:11.019Z,6.97
2019-04-30T02:26:40.277Z,6.70
2019-04-30T02:29:10.340Z,7.07
2019-04-30T02:31:40.871Z,6.43
2019-04-30T02:34:22.206Z,6.40
2019-04-30T02:37:09.789Z,5.97
2019-04-30T02:39:40.265Z,6.63
2019-04-30T02:42:13.227Z,6.50
2019-04-30T02:44:42.665Z,6.07
2019-04-30T02:47:12.716Z,5.63
2019-04-30T02:49:43.040Z,6.30
2019-04-30T02:52:13.335Z,5.53
2019-04-30T02:54:43.751Z,5.53
2019-04-30T02:57:14.358Z,5.90
2019-04-30T03:00:01.953Z,5.60
2019-04-30T03:02:33.583Z,5.67
2019-04-30T03:05:03.673Z,5.97
2019-04-30T03:07:33.697Z,5.67
2019-04-30T03:10:03.756Z,5.77
2019-04-30T03:12:34.116Z,5.50
2019-04-30T03:15:04.171Z,5.83
2019-04-30T03:18:00.592Z,5.13
2019-04-30T03:20:52.458Z,5.10
2019-04-30T03:23:22.527Z,5.57
2019-04-30T03:25:52.554Z,5.30
2019-04-30T03:28:22.598Z,5.40
2019-04-30T03:30:57.800Z,5.60
2019-04-30T03:33:24.370Z,5.10
2019-04-30T03:35:55.120Z,5.20
2019-04-30T03:38:25.531Z,5.07
2019-04-30T03:40:55.554Z,5.33
2019-04-30T03:43:25.726Z,5.00
2019-04-30T03:45:55.749Z,5.27
2019-04-30T03:48:25.794Z,4.93
2019-04-30T03:50:57.156Z,5.00
2019-04-30T03:53:29.695Z,5.73
2019-04-30T03:56:01.435Z,5.20
2019-04-30T03:58:30.916Z,5.30
2019-04-30T04:01:10.173Z,5.87
2019-04-30T04:04:00.595Z,7.20
2019-04-30T04:06:39.416Z,8.13
2019-04-30T04:09:22.330Z,9.33
2019-04-30T04:11:52.187Z,9.77
2019-04-30T04:14:22.242Z,10.27
2019-04-30T04:16:52.285Z,10.30
2019-04-30T04:19:22.427Z,9.63
2019-04-30T04:21:52.462Z,8.80
2019-04-30T04:24:22.517Z,9.53
2019-04-30T04:26:52.531Z,8.40
2019-04-30T04:29:22.577Z,9.13
2019-04-30T04:31:52.628Z,9.17
2019-04-30T04:34:22.648Z,9.63
2019-04-30T04:36:52.709Z,9.13
2019-04-30T04:39:22.743Z,9.87
2019-04-30T04:41:52.786Z,9.47
2019-04-30T04:44:22.803Z,9.43
2019-04-30T04:46:52.854Z,9.53
2019-04-30T04:49:22.875Z,10.40
2019-04-30T04:51:52.928Z,11.40
2019-04-30T04:54:22.971Z,11.93
2019-04-30T04:56:57.953Z,11.97
2019-04-30T04:59:24.757Z,12.53
2019-04-30T05:01:54.814Z,12.43
2019-04-30T05:04:24.830Z,13.33
2019-04-30T05:06:54.890Z,15.00
2019-04-30T05:09:24.931Z,14.53
2019-04-30T05:11:54.962Z,15.10
2019-04-30T05:14:25.012Z,14.60
2019-04-30T05:16:55.037Z,16.03
2019-04-30T05:19:28.627Z,16.57
2019-04-30T05:21:59.699Z,16.97
2019-04-30T05:24:29.792Z,16.80
2019-04-30T05:26:59.832Z,16.30
2019-04-30T05:29:30.102Z,17.63
2019-04-30T05:32:00.130Z,16.50
2019-04-30T05:34:30.189Z,18.07
2019-04-30T05:37:01.034Z,17.67
2019-04-30T05:39:31.062Z,19.20
2019-04-30T05:42:01.086Z,17.43
2019-04-30T05:44:31.121Z,17.27
2019-04-30T05:47:01.167Z,17.07
2019-04-30T05:49:32.176Z,16.23
2019-04-30T05:52:02.249Z,17.27
2019-04-30T05:54:32.297Z,17.23
2019-04-30T05:57:02.362Z,17.43
2019-04-30T05:59:32.402Z,17.03
2019-04-30T06:02:02.449Z,17.83
2019-04-30T06:04:32.495Z,17.50
2019-04-30T06:07:02.537Z,18.20
2019-04-30T06:09:41.703Z,17.70
2019-04-30T06:12:30.689Z,17.57
2019-04-30T06:15:14.664Z,16.60
2019-04-30T06:17:57.995Z,16.27
2019-04-30T06:20:21.065Z,17.57
2019-04-30T06:22:52.293Z,17.57
2019-04-30T06:25:31.736Z,15.97
2019-04-30T06:27:55.236Z,17.47
2019-04-30T06:30:25.555Z,17.83
2019-04-30T06:32:55.599Z,16.57
2019-04-30T06:35:25.677Z,17.27
2019-04-30T06:37:55.714Z,17.80
2019-04-30T06:40:25.766Z,17.53
2019-04-30T06:42:55.810Z,17.77
2019-04-30T06:45:25.848Z,16.90
2019-04-30T06:47:56.190Z,17.70
2019-04-30T06:50:26.359Z,17.33
2019-04-30T06:52:58.993Z,17.17
2019-04-30T06:55:30.628Z,17.50
2019-04-30T06:58:11.503Z,17.63
2019-04-30T07:00:40.217Z,19.30
2019-04-30T07:03:09.958Z,17.83
2019-04-30T07:05:40.121Z,19.07
2019-04-30T07:08:55.525Z,18.93
2019-04-30T07:11:39.225Z,18.10
2019-04-30T07:14:09.811Z,18.57
2019-04-30T07:16:39.874Z,18.97
2019-04-30T07:19:09.916Z,18.80
2019-04-30T07:21:42.719Z,18.17
2019-04-30T07:24:11.939Z,18.90
2019-04-30T07:26:41.965Z,17.70
2019-04-30T07:29:12.032Z,17.67
2019-04-30T07:31:42.054Z,19.03
2019-04-30T07:34:12.119Z,16.83
2019-04-30T07:36:48.928Z,18.23
2019-04-30T07:39:13.942Z,17.50
2019-04-30T07:41:43.988Z,16.13
2019-04-30T07:44:30.003Z,16.83
2019-04-30T07:46:45.786Z,17.60
2019-04-30T07:49:15.827Z,17.20
2019-04-30T07:51:47.691Z,16.40
2019-04-30T07:54:19.038Z,16.70
2019-04-30T07:56:50.711Z,16.07
2019-04-30T07:59:20.858Z,16.60
2019-04-30T08:02:04.086Z,16.30
2019-04-30T08:04:40.839Z,17.10
2019-04-30T08:07:11.020Z,15.90
2019-04-30T08:09:42.286Z,15.40
2019-04-30T08:12:21.758Z,16.57
2019-04-30T08:14:45.215Z,15.57
2019-04-30T08:17:15.271Z,16.53
2019-04-30T08:19:45.295Z,16.30
2019-04-30T08:22:15.355Z,15.37
2019-04-30T08:24:45.419Z,16.23
2019-04-30T08:27:15.438Z,16.30
2019-04-30T08:29:45.482Z,15.97
2019-04-30T08:32:15.581Z,15.23
2019-04-30T08:34:45.622Z,16.80
2019-04-30T08:37:18.161Z,16.10
2019-04-30T08:39:49.492Z,15.93
2019-04-30T08:42:30.851Z,15.60
2019-04-30T08:44:50.968Z,16.53
2019-04-30T08:47:21.335Z,14.80
2019-04-30T08:49:51.474Z,15.43
2019-04-30T08:52:21.578Z,16.30
2019-04-30T08:54:51.614Z,16.13
2019-04-30T08:57:21.670Z,15.67
2019-04-30T08:59:51.728Z,16.30
2019-04-30T09:02:21.778Z,15.60
2019-04-30T09:04:54.542Z,15.37
2019-04-30T09:07:24.618Z,16.50
2019-04-30T09:09:54.643Z,16.20
2019-04-30T09:12:24.683Z,17.23
2019-04-30T09:14:54.763Z,16.53
2019-04-30T09:17:24.791Z,16.03
2019-04-30T09:19:54.869Z,16.67
2019-04-30T09:22:24.901Z,16.33
2019-04-30T09:24:54.965Z,16.20
2019-04-30T09:27:24.993Z,16.63
2019-04-30T09:29:55.043Z,15.93
2019-04-30T09:32:25.102Z,16.07
2019-04-30T09:34:55.136Z,16.53
2019-04-30T09:37:25.214Z,17.27
2019-04-30T09:39:55.302Z,16.27
2019-04-30T09:42:25.405Z,16.73
2019-04-30T09:44:57.231Z,15.90
2019-04-30T09:47:27.205Z,16.77
2019-04-30T09:49:59.451Z,15.50
2019-04-30T09:52:30.850Z,16.13
2019-04-30T09:55:01.320Z,16.50
2019-04-30T09:57:31.594Z,16.70
2019-04-30T10:00:01.636Z,16.27
2019-04-30T10:02:31.759Z,15.67
2019-04-30T10:05:02.476Z,15.07
2019-04-30T10:07:32.804Z,16.03
2019-04-30T10:10:02.879Z,15.30
2019-04-30T10:12:32.988Z,14.80
2019-04-30T10:15:03.123Z,15.10
2019-04-30T10:17:37.015Z,14.87
2019-04-30T10:20:08.443Z,14.97
2019-04-30T10:22:40.108Z,15.30
2019-04-30T10:25:10.199Z,14.73
2019-04-30T10:27:40.267Z,14.53
2019-04-30T10:30:12.010Z,14.80
2019-04-30T10:32:42.066Z,13.83
2019-04-30T10:35:12.094Z,14.13
2019-04-30T10:37:42.143Z,14.23
2019-04-30T10:40:12.195Z,13.67
2019-04-30T10:42:44.116Z,13.77
2019-04-30T10:45:14.174Z,14.70
2019-04-30T10:47:44.203Z,15.00
2019-04-30T10:50:14.244Z,13.13
2019-04-30T10:52:44.418Z,13.43
2019-04-30T10:55:14.449Z,14.13
2019-04-30T10:57:44.498Z,13.93
2019-04-30T11:00:14.569Z,13.97
2019-04-30T11:02:44.667Z,13.03
2019-04-30T11:05:14.724Z,13.90
2019-04-30T11:07:44.771Z,13.80
2019-04-30T11:10:14.985Z,13.80
2019-04-30T11:12:45.033Z,13.17
2019-04-30T11:15:15.082Z,13.37
2019-04-30T11:17:45.310Z,13.23
2019-04-30T11:20:15.647Z,14.47
2019-04-30T11:22:46.210Z,13.97
2019-04-30T11:25:16.393Z,13.53
2019-04-30T11:27:47.124Z,13.10
2019-04-30T11:30:21.262Z,13.60
2019-04-30T11:32:49.316Z,14.13
2019-04-30T11:35:20.739Z,13.50
2019-04-30T11:37:50.870Z,13.20
2019-04-30T11:40:33.990Z,12.97
2019-04-30T11:42:58.670Z,13.20
2019-04-30T11:46:10.232Z,13.40
2019-04-30T11:48:40.250Z,13.80
2019-04-30T11:51:10.295Z,13.67
2019-04-30T11:53:40.338Z,12.87
2019-04-30T11:56:10.370Z,13.80
2019-04-30T11:58:40.418Z,14.23
2019-04-30T12:01:10.710Z,12.87
2019-04-30T12:03:40.747Z,13.00
2019-04-30T12:06:10.810Z,11.80
2019-04-30T12:08:59.787Z,12.53
2019-04-30T12:11:34.342Z,13.50
2019-04-30T12:14:04.419Z,11.97
2019-04-30T12:16:34.557Z,11.73
2019-04-30T12:19:04.614Z,11.40
2019-04-30T12:21:34.678Z,12.00
2019-04-30T12:24:04.706Z,11.70
2019-04-30T12:26:34.760Z,10.43
2019-04-30T12:29:04.803Z,10.33
2019-04-30T12:31:34.844Z,11.30
2019-04-30T12:34:04.865Z,9.53
2019-04-30T12:36:35.017Z,10.32
2019-04-30T12:39:05.912Z,10.03
2019-04-30T12:41:35.991Z,9.53
2019-04-30T12:44:06.795Z,8.93
2019-04-30T12:46:38.636Z,8.57
2019-04-30T12:49:11.153Z,8.00
2019-04-30T12:52:08.637Z,8.88
2019-04-30T12:54:46.132Z,8.80
2019-04-30T12:57:58.569Z,8.00
2019-04-30T13:00:19.508Z,7.47
2019-04-30T13:02:49.699Z,8.27
2019-04-30T13:05:19.719Z,8.77
2019-04-30T13:07:50.818Z,8.33
2019-04-30T13:10:21.932Z,8.07
2019-04-30T13:12:52.674Z,8.97
2019-04-30T13:15:23.204Z,7.83
2019-04-30T13:17:53.239Z,8.70
2019-04-30T13:20:24.040Z,8.53
2019-04-30T13:22:54.418Z,9.07
2019-04-30T13:25:32.371Z,8.70
2019-04-30T13:28:00.901Z,9.10
2019-04-30T13:30:31.858Z,8.83
2019-04-30T13:33:09.483Z,9.17
2019-04-30T13:35:39.331Z,9.10
2019-04-30T13:38:15.898Z,8.97
2019-04-30T13:40:52.632Z,9.03
2019-04-30T13:43:41.647Z,8.43
2019-04-30T13:46:11.741Z,8.60
2019-04-30T13:48:41.773Z,8.50
2019-04-30T13:51:11.823Z,7.83
2019-04-30T13:53:41.858Z,7.80
2019-04-30T13:56:11.894Z,8.07
2019-04-30T13:58:41.935Z,7.40
2019-04-30T14:01:11.979Z,8.00
2019-04-30T14:03:59.031Z,8.27
2019-04-30T14:06:30.418Z,8.13
2019-04-30T14:09:02.333Z,7.53
2019-04-30T14:11:33.334Z,8.23
2019-04-30T14:14:03.464Z,7.57
2019-04-30T14:16:33.495Z,7.80
2019-04-30T14:19:03.543Z,7.47
2019-04-30T14:21:35.361Z,7.30
2019-04-30T14:24:05.461Z,8.17
2019-04-30T14:26:35.514Z,7.17
2019-04-30T14:29:05.540Z,8.30
2019-04-30T14:31:35.605Z,7.70
2019-04-30T14:34:05.682Z,7.67
2019-04-30T14:36:35.710Z,7.73
2019-04-30T14:39:14.636Z,6.77
2019-04-30T14:41:40.605Z,7.23
2019-04-30T14:44:17.253Z,6.67
2019-04-30T14:46:59.613Z,6.40
2019-04-30T14:49:59.404Z,6.83
2019-04-30T14:52:19.392Z,7.13
2019-04-30T14:55:02.638Z,6.93
2019-04-30T14:57:54.708Z,7.83
2019-04-30T15:00:46.506Z,8.27
2019-04-30T15:03:17.080Z,8.37
2019-04-30T15:05:51.370Z,8.97
2019-04-30T15:08:19.401Z,8.77
2019-04-30T15:10:49.482Z,9.40
2019-04-30T15:13:19.627Z,8.77
2019-04-30T15:15:49.638Z,10.23
2019-04-30T15:18:20.643Z,9.43
2019-04-30T15:20:50.716Z,9.90
2019-04-30T15:23:38.338Z,10.20
2019-04-30T15:26:08.691Z,10.30
2019-04-30T15:28:41.486Z,9.73
2019-04-30T15:31:11.576Z,11.57
2019-04-30T15:33:45.770Z,12.87
2019-04-30T15:36:15.832Z,16.03
2019-04-30T15:39:03.414Z,16.87
2019-04-30T15:41:35.098Z,17.03
2019-04-30T15:44:05.517Z,17.47
2019-04-30T15:46:35.576Z,18.90
2019-04-30T15:49:05.648Z,18.73
2019-04-30T15:51:35.702Z,19.03
2019-04-30T15:54:05.877Z,17.50
2019-04-30T15:56:38.255Z,18.63
2019-04-30T15:59:29.642Z,18.03
2019-04-30T16:02:03.962Z,20.00
2019-04-30T16:04:59.890Z,18.23
2019-04-30T16:07:29.987Z,20.43
2019-04-30T16:10:16.347Z,20.63
2019-04-30T16:12:58.977Z,21.13
2019-04-30T16:15:29.751Z,20.83
2019-04-30T16:18:01.149Z,20.93
2019-04-30T16:20:31.233Z,20.10
2019-04-30T16:23:01.359Z,19.83
2019-04-30T16:25:31.382Z,20.40
2019-04-30T16:28:01.496Z,21.63
2019-04-30T16:30:31.518Z,21.53
2019-04-30T16:33:01.582Z,21.20
2019-04-30T16:35:31.694Z,22.53
2019-04-30T16:38:01.750Z,22.30
2019-04-30T16:40:31.890Z,22.90
2019-04-30T16:43:01.921Z,23.77
2019-04-30T16:45:33.051Z,24.13
2019-04-30T16:48:03.185Z,24.40
2019-04-30T16:50:33.268Z,23.53
2019-04-30T16:53:03.331Z,24.90
2019-04-30T16:55:34.333Z,24.30
2019-04-30T16:58:04.387Z,25.20
2019-04-30T17:00:34.504Z,25.73
2019-04-30T17:03:09.231Z,25.50
2019-04-30T17:05:46.720Z,24.60
2019-04-30T17:08:41.551Z,23.60
2019-04-30T17:11:30.531Z,25.73
2019-04-30T17:14:03.271Z,24.27
2019-04-30T17:16:33.311Z,24.67
2019-04-30T17:19:03.388Z,24.23
2019-04-30T17:21:33.422Z,24.00
2019-04-30T17:24:04.499Z,24.70
2019-04-30T17:26:34.547Z,24.03
2019-04-30T17:29:04.573Z,24.70
2019-04-30T17:31:34.633Z,23.30
2019-04-30T17:34:04.669Z,23.43
2019-04-30T17:36:34.731Z,24.50
2019-04-30T17:39:06.196Z,24.27
2019-04-30T17:41:36.482Z,24.67
2019-04-30T17:44:06.525Z,25.43
2019-04-30T17:46:38.466Z,24.57
2019-04-30T17:49:10.013Z,24.40
2019-04-30T17:51:41.212Z,25.07
2019-04-30T17:54:14.593Z,24.53
2019-04-30T17:56:45.031Z,23.50
2019-04-30T17:59:15.053Z,23.73
2019-04-30T18:01:51.311Z,23.93
2019-04-30T18:04:22.205Z,25.00
2019-04-30T18:06:52.390Z,23.63
2019-04-30T18:09:22.429Z,23.70
2019-04-30T18:11:52.534Z,25.10
2019-04-30T18:14:22.583Z,23.93
2019-04-30T18:16:52.627Z,23.43
2019-04-30T18:19:46.708Z,23.23
2019-04-30T18:22:30.269Z,23.67
2019-04-30T18:25:20.278Z,23.30
2019-04-30T18:27:54.070Z,23.27
2019-04-30T18:30:29.078Z,24.03
2019-04-30T18:32:59.164Z,23.17
2019-04-30T18:35:29.295Z,22.70
2019-04-30T18:37:59.336Z,23.83
2019-04-30T18:40:29.652Z,23.60
2019-04-30T18:42:59.833Z,22.77
2019-04-30T18:45:29.890Z,23.17
2019-04-30T18:48:01.688Z,23.43
2019-04-30T18:50:31.898Z,23.10
2019-04-30T18:53:04.493Z,23.53
2019-04-30T18:55:34.647Z,24.27
2019-04-30T18:58:04.821Z,23.20
2019-04-30T19:00:40.865Z,23.57
2019-04-30T19:03:10.947Z,22.80
2019-04-30T19:05:42.784Z,21.60
2019-04-30T19:08:25.059Z,24.50
2019-04-30T19:11:06.417Z,22.93
2019-04-30T19:13:54.051Z,22.70
2019-04-30T19:16:46.078Z,23.80
2019-04-30T19:19:37.860Z,22.20
2019-04-30T19:22:09.133Z,23.17
2019-04-30T19:24:39.266Z,23.07
2019-04-30T19:27:09.413Z,23.83
2019-04-30T19:29:39.455Z,23.97
2019-04-30T19:32:09.546Z,22.73
2019-04-30T19:34:39.536Z,22.87
2019-04-30T19:37:09.555Z,24.30
2019-04-30T19:39:39.599Z,23.80
2019-04-30T19:42:09.659Z,23.43
2019-04-30T19:44:39.749Z,22.70
2019-04-30T19:47:09.808Z,22.17
2019-04-30T19:49:40.759Z,23.10
2019-04-30T19:52:11.785Z,22.70
2019-04-30T19:54:42.229Z,21.27
2019-04-30T19:57:12.295Z,22.60
2019-04-30T19:59:42.335Z,21.47
2019-04-30T20:02:12.371Z,23.40
2019-04-30T20:04:42.441Z,21.13
2019-04-30T20:07:12.472Z,21.50
2019-04-30T20:09:43.215Z,20.80
2019-04-30T20:12:13.393Z,21.23
2019-04-30T20:14:43.432Z,21.53
2019-04-30T20:17:13.489Z,20.90
2019-04-30T20:19:43.547Z,21.57
2019-04-30T20:22:13.934Z,20.90
2019-04-30T20:24:44.139Z,21.07
2019-04-30T20:27:14.184Z,19.97
2019-04-30T20:29:44.277Z,21.30
2019-04-30T20:32:14.356Z,20.80
2019-04-30T20:34:44.445Z,21.60
2019-04-30T20:37:14.496Z,21.13
2019-04-30T20:40:01.520Z,22.30
2019-04-30T20:42:31.550Z,21.57
2019-04-30T20:45:03.837Z,20.43
2019-04-30T20:47:34.071Z,21.20
2019-04-30T20:50:04.149Z,21.37
2019-04-30T20:52:34.188Z,21.40
2019-04-30T20:55:04.271Z,19.97
2019-04-30T20:57:34.326Z,21.53
2019-04-30T21:00:04.687Z,21.77
2019-04-30T21:02:38.588Z,21.17
2019-04-30T21:05:08.111Z,21.90
2019-04-30T21:07:38.177Z,22.07
2019-04-30T21:10:10.161Z,21.60
2019-04-30T21:12:39.958Z,21.70
2019-04-30T21:15:09.998Z,21.30
2019-04-30T21:17:40.125Z,20.13
2019-04-30T21:20:10.184Z,23.23
2019-04-30T21:22:41.134Z,21.53
2019-04-30T21:25:12.490Z,22.53
2019-04-30T21:27:42.429Z,23.03
2019-04-30T21:30:12.485Z,22.80
2019-04-30T21:33:13.650Z,23.80
2019-04-30T21:36:02.617Z,23.43
2019-04-30T21:38:32.680Z,24.53
2019-04-30T21:41:02.706Z,24.60
2019-04-30T21:43:32.782Z,24.63
2019-04-30T21:46:02.936Z,24.87
2019-04-30T21:48:32.998Z,25.50
2019-04-30T21:51:03.078Z,25.43
2019-04-30T21:53:33.112Z,25.53
2019-04-30T21:56:03.164Z,24.97
2019-04-30T21:58:33.215Z,25.33
2019-04-30T22:01:28.496Z,26.60
2019-04-30T22:03:58.623Z,26.57
2019-04-30T22:06:29.621Z,27.23
2019-04-30T22:08:59.789Z,26.43
2019-04-30T22:11:29.859Z,26.70
2019-04-30T22:13:59.906Z,28.03
2019-04-30T22:16:30.904Z,28.70
2019-04-30T22:19:00.945Z,28.13
2019-04-30T22:21:30.984Z,28.50
2019-04-30T22:24:01.030Z,28.27
2019-04-30T22:26:31.051Z,25.70
2019-04-30T22:29:02.073Z,27.97
2019-04-30T22:31:32.098Z,26.87
2019-04-30T22:34:02.149Z,29.20
2019-04-30T22:36:40.107Z,29.03
2019-04-30T22:39:29.678Z,28.07
2019-04-30T22:42:29.751Z,28.97
2019-04-30T22:45:01.467Z,28.63
2019-04-30T22:47:32.390Z,28.83
2019-04-30T22:50:02.447Z,29.80
2019-04-30T22:52:33.474Z,30.00
2019-04-30T22:55:03.588Z,29.70
2019-04-30T22:57:33.639Z,28.90
2019-04-30T23:00:04.226Z,29.27
2019-04-30T23:02:55.349Z,29.13
2019-04-30T23:05:25.385Z,31.50
2019-04-30T23:07:55.555Z,30.50
2019-04-30T23:10:26.555Z,30.80
2019-04-30T23:12:56.622Z,29.10
2019-04-30T23:15:26.658Z,30.43
2019-04-30T23:17:56.779Z,32.03
2019-04-30T23:20:26.811Z,31.40
2019-04-30T23:22:56.892Z,31.10
2019-04-30T23:25:26.935Z,32.17
2019-04-30T23:27:57.094Z,31.03
2019-04-30T23:30:27.140Z,30.00
2019-04-30T23:32:57.195Z,31.87
2019-04-30T23:35:27.239Z,31.27
2019-04-30T23:37:57.434Z,32.27
2019-04-30T23:40:28.913Z,32.10
2019-04-30T23:42:58.972Z,31.23
2019-04-30T23:45:29.006Z,30.17
2019-04-30T23:47:59.075Z,32.50
2019-04-30T23:50:29.124Z,32.27
2019-04-30T23:52:59.293Z,32.07
2019-04-30T23:55:29.350Z,32.00
2019-04-30T23:57:59.395Z,29.80
